createdAt,value
2022-08-26T00:02:12.953Z,58.28
2022-08-26T00:04:41.197Z,58.58
2022-08-26T00:07:09.319Z,58.39
2022-08-26T00:09:40.268Z,58.87
2022-08-26T00:12:09.452Z,59.13
2022-08-26T00:14:40.939Z,59.30
2022-08-26T00:17:09.272Z,58.83
2022-08-26T00:19:38.671Z,59.04
2022-08-26T00:22:07.185Z,59.13
2022-08-26T00:24:35.170Z,58.98
2022-08-26T00:27:03.402Z,59.24
2022-08-26T00:29:35.466Z,59.42
2022-08-26T00:32:06.102Z,59.76
2022-08-26T00:34:34.228Z,59.65
2022-08-26T00:37:03.618Z,59.67
2022-08-26T00:39:31.779Z,59.63
2022-08-26T00:42:00.640Z,59.52
2022-08-26T00:44:30.237Z,59.57
2022-08-26T00:47:02.746Z,59.40
2022-08-26T00:49:37.805Z,59.35
2022-08-26T00:52:12.105Z,59.82
2022-08-26T00:54:46.779Z,59.54
2022-08-26T00:57:17.095Z,59.74
2022-08-26T00:59:46.921Z,59.91
2022-08-26T01:02:20.705Z,60.06
2022-08-26T01:04:55.808Z,59.93
2022-08-26T01:07:27.540Z,60.55
2022-08-26T01:09:59.683Z,60.39
2022-08-26T01:12:29.786Z,60.49
2022-08-26T01:14:57.637Z,60.54
2022-08-26T01:17:25.966Z,60.82
2022-08-26T01:20:01.263Z,60.47
2022-08-26T01:22:33.088Z,60.80
2022-08-26T01:25:03.614Z,60.73
2022-08-26T01:27:32.952Z,61.01
2022-08-26T01:30:02.441Z,61.31
2022-08-26T01:32:31.545Z,61.17
2022-08-26T01:35:00.014Z,60.76
2022-08-26T01:37:33.041Z,61.02
2022-08-26T01:40:02.718Z,61.00
2022-08-26T01:42:30.861Z,61.06
2022-08-26T01:45:02.809Z,60.99
2022-08-26T01:47:33.128Z,60.75
2022-08-26T01:50:03.574Z,61.04
2022-08-26T01:52:34.595Z,61.42
2022-08-26T01:55:04.677Z,61.51
2022-08-26T01:57:32.972Z,61.95
2022-08-26T02:00:04.098Z,62.06
2022-08-26T02:05:03.041Z,62.09
2022-08-26T02:07:31.572Z,62.43
2022-08-26T02:10:03.402Z,62.27
2022-08-26T02:12:32.277Z,62.20
2022-08-26T02:15:02.636Z,62.49
2022-08-26T02:17:36.287Z,62.58
2022-08-26T02:20:13.096Z,62.55
2022-08-26T02:22:45.235Z,62.29
2022-08-26T02:25:19.668Z,62.75
2022-08-26T02:27:48.355Z,63.08
2022-08-26T02:30:19.283Z,63.05
2022-08-26T02:32:49.557Z,63.50
2022-08-26T02:35:20.168Z,63.57
2022-08-26T02:37:49.365Z,63.43
2022-08-26T02:40:21.967Z,62.70
2022-08-26T02:42:50.425Z,62.65
2022-08-26T02:45:23.284Z,62.90
2022-08-26T02:47:53.198Z,62.81
2022-08-26T02:50:22.287Z,63.28
2022-08-26T02:52:50.416Z,63.23
2022-08-26T02:55:20.467Z,63.37
2022-08-26T02:57:48.292Z,63.80
2022-08-26T03:00:17.329Z,64.39
2022-08-26T03:02:45.583Z,64.56
2022-08-26T03:05:14.071Z,64.76
2022-08-26T03:07:43.845Z,64.64
2022-08-26T03:10:13.797Z,64.51
2022-08-26T03:12:47.352Z,64.08
2022-08-26T03:15:18.396Z,64.46
2022-08-26T03:17:47.239Z,64.20
2022-08-26T03:20:15.783Z,63.76
2022-08-26T03:22:46.039Z,64.39
2022-08-26T03:25:15.966Z,64.71
2022-08-26T03:27:45.213Z,64.84
2022-08-26T03:30:32.242Z,64.94
2022-08-26T03:33:01.129Z,64.72
2022-08-26T03:35:29.310Z,64.54
2022-08-26T03:37:57.468Z,64.29
2022-08-26T03:40:26.083Z,63.94
2022-08-26T03:42:59.212Z,64.21
2022-08-26T03:45:28.354Z,63.97
2022-08-26T03:47:57.799Z,63.98
2022-08-26T03:50:26.972Z,64.79
2022-08-26T03:52:55.826Z,64.89
2022-08-26T03:55:25.616Z,65.44
2022-08-26T03:57:55.404Z,65.74
2022-08-26T04:00:24.764Z,65.81
2022-08-26T04:02:53.624Z,65.37
2022-08-26T04:05:23.056Z,65.29
2022-08-26T04:07:51.633Z,65.01
2022-08-26T04:10:28.971Z,65.26
2022-08-26T04:13:06.185Z,64.73
2022-08-26T04:15:35.984Z,64.88
2022-08-26T04:18:04.249Z,65.00
2022-08-26T04:20:32.149Z,64.67
2022-08-26T04:23:00.623Z,64.95
2022-08-26T04:25:28.541Z,65.40
2022-08-26T04:27:56.385Z,66.94
2022-08-26T04:30:25.557Z,68.58
2022-08-26T04:32:54.836Z,68.77
2022-08-26T04:35:25.926Z,68.74
2022-08-26T04:37:55.518Z,68.79
2022-08-26T04:40:23.711Z,66.89
2022-08-26T04:42:51.669Z,66.52
2022-08-26T04:45:22.806Z,66.46
2022-08-26T04:47:56.458Z,66.36
2022-08-26T04:50:26.597Z,66.49
2022-08-26T04:52:55.341Z,67.96
2022-08-26T04:55:25.335Z,68.73
2022-08-26T04:58:08.841Z,67.67
2022-08-26T05:00:38.915Z,66.83
2022-08-26T05:03:10.556Z,68.12
2022-08-26T05:05:40.925Z,68.98
2022-08-26T05:08:09.233Z,69.26
2022-08-26T05:10:41.272Z,69.24
2022-08-26T05:13:10.972Z,68.94
2022-08-26T05:15:40.009Z,69.02
2022-08-26T05:18:11.300Z,68.71
2022-08-26T05:20:41.242Z,68.64
2022-08-26T05:23:09.455Z,67.98
2022-08-26T05:25:39.028Z,66.90
2022-08-26T05:28:07.770Z,66.40
2022-08-26T05:30:35.815Z,66.74
2022-08-26T05:33:04.178Z,67.40
2022-08-26T05:35:34.265Z,67.28
2022-08-26T05:38:08.259Z,66.99
2022-08-26T05:40:41.995Z,67.91
2022-08-26T05:43:13.530Z,67.73
2022-08-26T05:45:46.261Z,67.13
2022-08-26T05:48:16.100Z,67.11
2022-08-26T05:50:50.911Z,67.92
2022-08-26T05:53:24.015Z,67.66
2022-08-26T05:55:55.276Z,67.19
2022-08-26T05:58:24.579Z,67.85
2022-08-26T06:00:59.960Z,67.48
2022-08-26T06:03:30.461Z,67.39
2022-08-26T06:06:06.242Z,67.29
2022-08-26T06:08:35.868Z,67.08
2022-08-26T06:11:06.664Z,66.95
2022-08-26T06:13:36.543Z,66.79
2022-08-26T06:16:07.370Z,66.86
2022-08-26T06:18:44.333Z,66.65
2022-08-26T06:21:17.855Z,67.38
2022-08-26T06:24:04.475Z,67.38
2022-08-26T06:26:33.552Z,67.05
2022-08-26T06:29:01.979Z,66.56
2022-08-26T06:31:33.612Z,66.95
2022-08-26T06:34:03.150Z,67.03
2022-08-26T06:36:39.465Z,67.48
2022-08-26T06:39:09.563Z,67.90
2022-08-26T06:41:43.179Z,68.01
2022-08-26T06:44:12.368Z,67.54
2022-08-26T06:46:41.237Z,67.03
2022-08-26T06:49:09.486Z,67.01
2022-08-26T06:51:40.960Z,66.21
2022-08-26T06:54:09.633Z,65.74
2022-08-26T06:56:40.258Z,65.74
2022-08-26T06:59:12.506Z,65.32
2022-08-26T07:01:44.822Z,64.48
2022-08-26T07:04:15.745Z,64.46
2022-08-26T07:06:52.418Z,64.10
2022-08-26T07:09:23.740Z,63.35
2022-08-26T07:11:56.176Z,63.43
2022-08-26T07:14:26.257Z,63.05
2022-08-26T07:16:54.826Z,61.72
2022-08-26T07:19:31.092Z,61.55
2022-08-26T07:22:03.247Z,60.82
2022-08-26T07:24:32.502Z,60.13
2022-08-26T07:27:01.857Z,59.40
2022-08-26T07:29:31.064Z,58.93
2022-08-26T07:31:59.221Z,58.71
2022-08-26T07:34:27.963Z,58.14
2022-08-26T07:36:57.059Z,58.05
2022-08-26T07:39:27.561Z,56.91
2022-08-26T07:41:56.152Z,56.52
2022-08-26T07:44:27.298Z,56.44
2022-08-26T07:47:00.084Z,56.02
2022-08-26T07:49:31.483Z,54.78
2022-08-26T07:51:59.763Z,54.39
2022-08-26T07:54:30.179Z,53.46
2022-08-26T07:57:00.956Z,54.26
2022-08-26T07:59:39.930Z,53.45
2022-08-26T08:02:11.222Z,52.90
2022-08-26T08:04:39.288Z,52.75
2022-08-26T08:07:07.680Z,52.14
2022-08-26T08:09:58.136Z,51.64
2022-08-26T08:12:32.729Z,51.29
2022-08-26T08:15:02.434Z,51.58
2022-08-26T08:17:31.726Z,51.34
2022-08-26T08:19:59.821Z,51.25
2022-08-26T08:22:27.797Z,50.29
2022-08-26T08:24:58.076Z,50.47
2022-08-26T08:27:27.814Z,49.76
2022-08-26T08:29:56.839Z,49.40
2022-08-26T08:32:24.919Z,48.62
2022-08-26T08:34:53.775Z,48.60
2022-08-26T08:37:21.795Z,49.15
2022-08-26T08:39:50.215Z,48.43
2022-08-26T08:45:23.790Z,47.43
2022-08-26T08:47:54.753Z,47.63
2022-08-26T08:50:27.080Z,46.47
2022-08-26T08:53:05.170Z,47.43
2022-08-26T08:55:43.446Z,46.63
2022-08-26T08:58:19.652Z,46.25
2022-08-26T09:00:51.732Z,46.67
2022-08-26T09:03:32.740Z,46.43
2022-08-26T09:06:01.895Z,45.72
2022-08-26T09:08:35.239Z,46.09
2022-08-26T09:11:04.437Z,46.32
2022-08-26T09:13:34.389Z,45.80
2022-08-26T09:16:08.342Z,45.79
2022-08-26T09:18:57.134Z,45.29
2022-08-26T09:21:29.935Z,46.33
2022-08-26T09:23:59.255Z,46.66
2022-08-26T09:26:30.880Z,46.92
2022-08-26T09:29:03.074Z,46.73
2022-08-26T09:31:33.046Z,45.89
2022-08-26T09:34:08.897Z,45.14
2022-08-26T09:36:41.405Z,45.31
2022-08-26T09:39:26.094Z,45.01
2022-08-26T09:42:05.799Z,45.25
2022-08-26T09:44:53.790Z,45.53
2022-08-26T09:47:25.317Z,46.05
2022-08-26T09:49:59.388Z,46.05
2022-08-26T09:52:27.962Z,46.66
2022-08-26T09:55:04.649Z,46.76
2022-08-26T09:57:37.404Z,47.17
2022-08-26T10:00:25.547Z,47.78
2022-08-26T10:02:57.395Z,49.19
2022-08-26T10:05:38.592Z,54.26
2022-08-26T10:08:23.092Z,59.73
2022-08-26T10:10:53.343Z,61.34
2022-08-26T10:13:27.097Z,59.74
2022-08-26T10:16:10.743Z,61.70
2022-08-26T10:18:42.257Z,64.87
2022-08-26T10:21:14.312Z,69.65
2022-08-26T10:23:49.589Z,66.55
2022-08-26T10:26:20.977Z,69.35
2022-08-26T10:28:52.604Z,70.17
2022-08-26T10:31:47.851Z,70.61
2022-08-26T10:34:21.206Z,71.88
2022-08-26T10:37:14.151Z,71.24
2022-08-26T10:39:57.350Z,69.76
2022-08-26T10:42:33.263Z,70.99
2022-08-26T10:45:08.174Z,70.52
2022-08-26T10:47:47.539Z,71.94
2022-08-26T10:50:19.278Z,74.53
2022-08-26T10:52:58.162Z,73.66
2022-08-26T10:55:34.888Z,76.05
2022-08-26T10:58:11.601Z,77.12
2022-08-26T11:01:00.276Z,77.41
2022-08-26T11:03:34.584Z,76.78
2022-08-26T11:06:22.734Z,76.85
2022-08-26T11:08:51.449Z,77.17
2022-08-26T11:11:50.837Z,77.91
2022-08-26T11:14:41.105Z,77.60
2022-08-26T11:18:02.285Z,77.90
2022-08-26T11:20:37.320Z,75.70
2022-08-26T11:23:40.432Z,77.72
2022-08-26T11:26:20.383Z,76.76
2022-08-26T11:29:12.857Z,74.79
2022-08-26T11:31:57.263Z,73.62
2022-08-26T11:34:59.365Z,68.76
2022-08-26T11:37:35.019Z,70.28
2022-08-26T11:40:05.518Z,69.44
2022-08-26T11:42:43.113Z,66.30
2022-08-26T11:45:23.636Z,65.81
2022-08-26T11:47:51.914Z,62.17
2022-08-26T11:50:25.082Z,62.20
2022-08-26T11:53:02.355Z,62.44
2022-08-26T11:55:32.007Z,63.89
2022-08-26T11:58:01.960Z,64.79
2022-08-26T12:00:36.126Z,65.65
2022-08-26T12:03:09.723Z,66.67
2022-08-26T12:05:43.526Z,66.93
2022-08-26T12:08:18.104Z,69.18
2022-08-26T12:10:46.115Z,70.59
2022-08-26T12:13:22.066Z,69.89
2022-08-26T12:15:55.924Z,68.49
2022-08-26T12:18:29.158Z,68.20
2022-08-26T12:21:00.483Z,68.83
2022-08-26T12:23:38.826Z,69.73
2022-08-26T12:26:10.368Z,70.57
2022-08-26T12:28:44.852Z,70.38
2022-08-26T12:31:13.136Z,69.92
2022-08-26T12:33:45.552Z,70.20
2022-08-26T12:36:13.950Z,70.29
2022-08-26T12:38:45.541Z,71.20
2022-08-26T12:41:13.609Z,71.56
2022-08-26T12:43:43.949Z,71.98
2022-08-26T12:46:13.600Z,72.59
2022-08-26T12:48:44.061Z,72.24
2022-08-26T12:51:21.839Z,71.54
2022-08-26T12:53:53.945Z,71.63
2022-08-26T12:56:31.347Z,71.19
2022-08-26T12:59:11.142Z,71.30
2022-08-26T13:01:44.376Z,71.60
2022-08-26T13:04:38.591Z,69.10
2022-08-26T13:07:24.720Z,69.67
2022-08-26T13:09:55.985Z,68.09
2022-08-26T13:12:29.513Z,67.47
2022-08-26T13:15:01.510Z,66.77
2022-08-26T13:17:30.918Z,67.22
2022-08-26T13:20:04.207Z,66.59
2022-08-26T13:22:32.798Z,66.66
2022-08-26T13:25:03.698Z,66.68
2022-08-26T13:27:31.639Z,66.26
2022-08-26T13:30:00.380Z,65.61
2022-08-26T13:32:28.644Z,65.23
2022-08-26T13:34:57.925Z,65.10
2022-08-26T13:37:34.259Z,64.98
2022-08-26T13:40:09.093Z,64.75
2022-08-26T13:42:37.084Z,64.69
2022-08-26T13:45:17.757Z,64.55
2022-08-26T13:47:45.785Z,64.09
2022-08-26T13:50:13.690Z,64.06
2022-08-26T13:52:41.894Z,63.46
2022-08-26T13:55:11.949Z,62.43
2022-08-26T13:57:39.903Z,62.96
2022-08-26T14:00:11.127Z,62.31
2022-08-26T14:02:41.633Z,62.23
2022-08-26T14:05:10.566Z,61.35
2022-08-26T14:07:38.451Z,59.62
2022-08-26T14:10:07.791Z,56.91
2022-08-26T14:12:37.235Z,56.11
2022-08-26T14:15:06.249Z,54.66
2022-08-26T14:17:34.247Z,55.04
2022-08-26T14:20:24.254Z,53.96
2022-08-26T14:23:13.022Z,52.08
2022-08-26T14:25:42.108Z,49.15
2022-08-26T14:28:17.490Z,46.90
2022-08-26T14:30:50.096Z,47.51
2022-08-26T14:33:44.330Z,49.34
2022-08-26T14:36:41.533Z,46.52
2022-08-26T14:39:40.507Z,45.69
2022-08-26T14:42:34.045Z,45.56
2022-08-26T14:45:05.575Z,45.06
2022-08-26T14:47:56.406Z,45.52
2022-08-26T14:51:47.307Z,46.27
2022-08-26T14:54:16.223Z,47.61
2022-08-26T14:57:11.051Z,47.42
2022-08-26T14:59:41.801Z,48.32
2022-08-26T15:02:13.860Z,48.00
2022-08-26T15:04:56.906Z,48.45
2022-08-26T15:07:25.090Z,49.02
2022-08-26T15:09:53.292Z,49.16
2022-08-26T15:12:21.905Z,49.42
2022-08-26T15:14:49.730Z,51.11
2022-08-26T15:17:19.106Z,52.92
2022-08-26T15:19:47.491Z,53.88
2022-08-26T15:22:15.772Z,54.17
2022-08-26T15:24:43.649Z,53.33
2022-08-26T15:27:12.429Z,53.94
2022-08-26T15:29:40.541Z,54.12
2022-08-26T15:32:08.791Z,54.84
2022-08-26T15:34:38.345Z,55.58
2022-08-26T15:37:06.790Z,56.49
2022-08-26T15:39:35.448Z,55.98
2022-08-26T15:42:03.689Z,55.36
2022-08-26T15:44:32.010Z,55.35
2022-08-26T15:47:00.006Z,55.76
2022-08-26T15:49:28.722Z,57.07
2022-08-26T15:51:58.434Z,57.33
2022-08-26T15:54:26.604Z,57.52
2022-08-26T15:56:54.610Z,58.17
2022-08-26T15:59:23.646Z,58.81
2022-08-26T16:01:51.868Z,58.50
2022-08-26T16:04:20.307Z,58.65
2022-08-26T16:06:52.546Z,59.84
2022-08-26T16:09:24.349Z,60.01
2022-08-26T16:12:00.665Z,60.58
2022-08-26T16:14:28.739Z,60.29
2022-08-26T16:31:54.930Z,53.99
2022-08-26T16:34:24.589Z,54.47
2022-08-26T16:36:52.735Z,53.76
2022-08-26T16:43:09.249Z,55.43
2022-08-26T16:45:43.216Z,56.21
2022-08-26T16:48:11.720Z,57.28
2022-08-26T16:50:43.892Z,57.93
2022-08-26T16:55:42.633Z,59.66
2022-08-26T16:58:10.768Z,59.77
2022-08-26T17:00:39.269Z,59.72
2022-08-26T17:03:07.651Z,59.83
2022-08-26T17:05:36.476Z,60.68
2022-08-26T17:08:06.657Z,61.08
2022-08-26T17:10:37.892Z,60.39
2022-08-26T17:13:06.432Z,60.83
2022-08-26T17:15:34.522Z,60.33
2022-08-26T17:18:02.534Z,59.71
2022-08-26T17:20:30.615Z,59.96
2022-08-26T17:22:59.054Z,60.57
2022-08-26T17:25:34.383Z,60.09
2022-08-26T17:28:02.708Z,59.52
2022-08-26T17:30:35.968Z,60.20
2022-08-26T17:33:10.543Z,60.52
2022-08-26T17:35:41.839Z,60.41
2022-08-26T17:38:11.454Z,60.45
2022-08-26T17:40:40.940Z,59.77
2022-08-26T17:43:12.211Z,59.47
2022-08-26T17:46:06.849Z,59.40
2022-08-26T17:52:59.832Z,60.78
2022-08-26T17:55:48.018Z,61.44
2022-08-26T18:22:23.622Z,65.18
2022-08-26T18:31:04.319Z,66.96
2022-08-26T18:39:45.989Z,66.70
2022-08-26T18:45:48.450Z,67.16
2022-08-26T18:48:20.301Z,67.36
2022-08-26T18:50:49.384Z,67.08
2022-08-26T18:53:19.387Z,67.14
2022-08-26T18:55:47.934Z,67.42
2022-08-26T18:58:16.409Z,67.94
2022-08-26T19:00:44.240Z,67.93
2022-08-26T19:03:18.415Z,68.10
2022-08-26T19:05:46.945Z,67.83
2022-08-26T19:08:14.817Z,68.04
2022-08-26T19:10:44.069Z,67.90
2022-08-26T19:13:12.533Z,67.78
2022-08-26T19:15:40.956Z,68.07
2022-08-26T19:18:09.795Z,68.30
2022-08-26T19:20:41.533Z,69.74
2022-08-26T19:23:30.201Z,69.29
2022-08-26T19:26:04.603Z,69.83
2022-08-26T19:28:32.787Z,70.19
2022-08-26T19:31:01.065Z,71.73
2022-08-26T19:33:29.059Z,72.13
2022-08-26T19:35:56.900Z,72.10
2022-08-26T19:38:24.753Z,72.24
2022-08-26T19:40:55.670Z,72.28
2022-08-26T19:43:24.880Z,72.28
2022-08-26T19:45:53.173Z,72.38
2022-08-26T19:48:21.127Z,72.22
2022-08-26T19:50:49.492Z,72.42
2022-08-26T19:53:17.329Z,72.72
2022-08-26T19:55:45.172Z,73.33
2022-08-26T19:58:12.968Z,73.06
2022-08-26T20:00:42.840Z,73.19
2022-08-26T20:03:15.822Z,73.82
2022-08-26T20:05:43.928Z,74.31
2022-08-26T20:08:16.783Z,73.82
2022-08-26T20:10:50.802Z,73.90
2022-08-26T20:13:19.019Z,73.74
2022-08-26T20:15:48.292Z,73.18
2022-08-26T20:18:30.001Z,73.05
2022-08-26T20:21:15.804Z,72.88
2022-08-26T20:23:44.068Z,73.29
2022-08-26T20:26:11.957Z,73.07
2022-08-26T20:28:39.832Z,74.18
2022-08-26T20:33:46.011Z,74.37
2022-08-26T20:36:14.971Z,74.87
2022-08-26T20:38:43.047Z,75.25
2022-08-26T20:41:11.064Z,75.35
2022-08-26T20:43:38.905Z,74.67
2022-08-26T20:46:10.571Z,75.80
2022-08-26T20:48:46.953Z,75.93
2022-08-26T20:51:15.204Z,76.13
2022-08-26T20:53:44.252Z,76.17
2022-08-26T20:56:13.595Z,76.60
2022-08-26T20:58:42.023Z,75.88
2022-08-26T21:01:18.982Z,76.41
2022-08-26T21:03:48.478Z,76.92
2022-08-26T21:06:16.372Z,77.14
2022-08-26T21:08:44.877Z,77.32
2022-08-26T21:11:12.907Z,77.60
2022-08-26T21:14:03.540Z,76.68
2022-08-26T21:16:31.320Z,76.61
2022-08-26T21:19:00.531Z,77.81
2022-08-26T21:21:28.518Z,77.97
2022-08-26T21:23:56.477Z,77.63
2022-08-26T21:26:24.878Z,77.21
2022-08-26T21:28:52.757Z,77.28
2022-08-26T21:31:24.805Z,77.14
2022-08-26T21:33:54.269Z,76.42
2022-08-26T21:36:22.152Z,76.92
2022-08-26T21:38:50.167Z,77.00
2022-08-26T21:41:20.843Z,77.43
2022-08-26T21:43:50.079Z,77.15
2022-08-26T21:46:21.903Z,77.29
2022-08-26T21:48:51.294Z,77.29
2022-08-26T21:51:23.228Z,77.06
2022-08-26T21:53:52.752Z,76.95
2022-08-26T21:56:21.725Z,77.15
2022-08-26T21:58:49.982Z,77.17
2022-08-26T22:01:22.359Z,77.52
2022-08-26T22:03:52.614Z,77.39
2022-08-26T22:06:23.228Z,77.21
2022-08-26T22:08:51.511Z,77.03
2022-08-26T22:11:19.698Z,76.75
2022-08-26T22:13:48.608Z,76.97
2022-08-26T22:16:16.709Z,77.52
2022-08-26T22:18:45.869Z,76.91
2022-08-26T22:21:15.277Z,77.59
2022-08-26T22:23:44.902Z,77.88
2022-08-26T22:26:15.170Z,78.08
2022-08-26T22:28:51.222Z,78.00
2022-08-26T22:31:35.309Z,77.59
2022-08-26T22:34:07.536Z,77.18
2022-08-26T22:36:36.076Z,77.11
2022-08-26T22:39:12.996Z,77.41
2022-08-26T22:41:43.273Z,77.16
2022-08-26T22:44:11.713Z,77.43
2022-08-26T22:46:39.872Z,76.86
2022-08-26T22:49:09.530Z,77.34
2022-08-26T22:51:37.473Z,77.17
2022-08-26T22:54:05.871Z,76.77
2022-08-26T22:56:35.474Z,76.70
2022-08-26T22:59:04.137Z,76.35
2022-08-26T23:01:32.110Z,75.82
2022-08-26T23:04:00.022Z,76.54
2022-08-26T23:06:27.918Z,77.15
2022-08-26T23:08:55.799Z,77.90
2022-08-26T23:11:23.592Z,78.12
2022-08-26T23:13:52.815Z,78.51
2022-08-26T23:16:21.139Z,78.72
2022-08-26T23:18:49.022Z,78.26
2022-08-26T23:21:19.116Z,77.95
2022-08-26T23:23:52.695Z,78.66
2022-08-26T23:26:22.220Z,78.38
2022-08-26T23:28:55.452Z,77.93
2022-08-26T23:31:47.377Z,79.18
2022-08-26T23:34:35.139Z,78.76
2022-08-26T23:37:12.431Z,78.28
2022-08-26T23:42:49.267Z,78.38
2022-08-26T23:48:36.602Z,77.92
2022-08-26T23:51:54.909Z,78.91
2022-08-26T23:54:37.085Z,79.18
2022-08-26T23:57:11.579Z,78.96
2022-08-26T23:59:39.657Z,78.30
